Terminal Aerodrome Forecast
Issued by NWS Atlanta, GA

Home | Current Version | Previous Version | Text Only | Print | Product List | Glossary On
Versions: 1 2 3 4 5 6 7 8 9 10 11 12 13 14 15 16 17 18 19 20 21
374
FTUS42 KFFC 240530
TAFMCN
TAF
KMCN 240530Z 2406/2506 21008KT P6SM SCT035 BKN100
     FM241100 24006KT P6SM VCSH SCT008 BKN012
     FM241500 26007KT P6SM VCSH BKN015
     FM241700 28008KT P6SM BKN040 PROB30 2417/2421 5SM -TSRA
      BKN030CB
     FM250000 29007KT P6SM BKN045=

USA.gov is the U.S. government's official web portal to all federal, state and local government web resources and services.